Time;durP1;ratioP1;P1;durP2;ratioP2;P2;SDS_P1;SDS_P2;PMS_P1;PMS_P2;Temp;Humidity;BMP_temperature;BMP_pressure;BME280_temperature;BME280_humidity;BME280_pressure;Samples;Min_cycle;Max_cycle;Signal;HPM_P1;HPM_P2
2022/11/27 00:01:25;;;;;;;25.50;11.83;;;;;;;6.45;100.00;102210.78;5051096;28;20505;-83
2022/11/27 00:03:53;;;;;;;29.57;12.60;;;;;;;6.46;100.00;102215.19;5071548;28;20032;-83
2022/11/27 00:06:22;;;;;;;28.97;12.50;;;;;;;6.48;100.00;102212.63;5040042;28;20032;-82
2022/11/27 00:08:49;;;;;;;28.97;12.13;;;;;;;6.51;100.00;102211.78;5050939;28;20467;-83
2022/11/27 00:11:21;;;;;;;29.17;12.60;;;;;;;6.55;100.00;102213.59;5050289;28;20040;-82
2022/11/27 00:13:49;;;;;;;28.43;11.83;;;;;;;6.53;100.00;102213.56;5082940;28;20036;-83
2022/11/27 00:16:16;;;;;;;34.23;13.87;;;;;;;6.54;100.00;102212.72;5059856;28;20042;-83
2022/11/27 00:18:44;;;;;;;27.43;13.00;;;;;;;6.49;100.00;102217.00;5069919;28;20046;-82
2022/11/27 00:21:25;;;;;;;27.37;11.73;;;;;;;6.48;100.00;102207.38;5037451;28;20040;-82
2022/11/27 00:23:53;;;;;;;33.30;12.87;;;;;;;6.47;100.00;102203.84;5062910;28;20081;-82
2022/11/27 00:26:20;;;;;;;30.30;12.23;;;;;;;6.47;100.00;102201.22;5050323;28;20044;-83
2022/11/27 00:28:47;;;;;;;34.47;13.50;;;;;;;6.52;100.00;102209.19;5055743;28;20120;-82
2022/11/27 00:31:20;;;;;;;30.43;12.50;;;;;;;6.48;100.00;102199.50;5072563;28;20518;-82
2022/11/27 00:33:47;;;;;;;35.83;14.60;;;;;;;6.48;100.00;102203.00;5051580;28;20048;-79
2022/11/27 00:36:16;;;;;;;34.63;13.13;;;;;;;6.48;100.00;102199.50;5055950;28;20059;-81
2022/11/27 00:38:42;;;;;;;35.87;13.93;;;;;;;6.49;100.00;102203.88;5091118;28;20413;-83
2022/11/27 00:41:21;;;;;;;40.23;15.03;;;;;;;6.50;100.00;102203.03;5050097;28;20048;-80
2022/11/27 00:43:48;;;;;;;36.13;14.43;;;;;;;6.49;100.00;102203.88;5103179;28;20484;-79
2022/11/27 00:46:16;;;;;;;29.97;13.57;;;;;;;6.49;100.00;102202.13;5079998;28;20468;-80
2022/11/27 00:48:43;;;;;;;36.47;15.47;;;;;;;6.51;100.00;102204.78;5060357;28;20776;-80
2022/11/27 00:51:12;;;;;;;31.33;13.63;;;;;;;6.49;100.00;102207.38;5080808;28;20063;-80
2022/11/27 00:53:39;;;;;;;32.73;15.40;;;;;;;6.49;100.00;102204.78;5061303;28;20085;-80
2022/11/27 00:56:06;;;;;;;35.60;12.73;;;;;;;6.48;100.00;102202.13;5046239;28;20055;-79
2022/11/27 00:58:33;;;;;;;30.40;14.07;;;;;;;6.47;100.00;102193.34;5077409;28;20040;-79
2022/11/27 01:01:04;;;;;;;34.07;13.73;;;;;;;6.50;100.00;102195.16;5079745;28;20560;-79
2022/11/27 01:03:31;;;;;;;32.47;13.40;;;;;;;6.47;100.00;102200.31;5061025;28;20032;-79
2022/11/27 01:06:03;;;;;;;26.13;12.07;;;;;;;6.48;100.00;102207.38;5080010;28;20044;-80
2022/11/27 01:08:30;;;;;;;32.70;13.00;;;;;;;6.47;100.00;102200.31;5080504;28;20546;-79
2022/11/27 01:10:57;;;;;;;35.83;14.33;;;;;;;6.47;100.00;102200.31;5045487;28;20050;-79
2022/11/27 01:13:26;;;;;;;28.50;12.63;;;;;;;6.47;100.00;102197.69;5060902;28;20036;-79
2022/11/27 01:16:16;;;;;;;31.13;13.27;;;;;;;6.48;100.00;102196.88;5071969;28;20041;-83
2022/11/27 01:18:44;;;;;;;28.20;13.10;;;;;;;6.48;100.00;102192.50;5039129;28;20047;-83
2022/11/27 01:21:12;;;;;;;33.07;13.43;;;;;;;6.47;100.00;102193.34;5054257;28;20044;-84
2022/11/27 01:23:39;;;;;;;28.87;14.23;;;;;;;6.47;100.00;102185.47;5079011;28;20035;-83
2022/11/27 01:26:07;;;;;;;35.67;13.43;;;;;;;6.48;100.00;102183.72;5056166;28;20048;-84
2022/11/27 01:28:35;;;;;;;30.67;13.10;;;;;;;6.47;100.00;102180.22;5053214;28;20063;-84
2022/11/27 01:31:07;;;;;;;30.70;12.33;;;;;;;6.48;100.00;102186.38;5040215;28;20080;-83
2022/11/27 01:33:35;;;;;;;32.60;12.33;;;;;;;6.48;100.00;102178.50;5075607;28;20103;-84
2022/11/27 01:36:04;;;;;;;26.70;12.70;;;;;;;6.46;100.00;102173.19;5056155;28;20535;-84
2022/11/27 01:38:31;;;;;;;34.00;12.43;;;;;;;6.47;100.00;102179.31;5091238;28;20044;-84
2022/11/27 01:41:00;;;;;;;32.57;12.10;;;;;;;6.47;100.00;102182.84;5058044;28;20535;-84
2022/11/27 01:43:45;;;;;;;30.60;12.70;;;;;;;6.47;100.00;102174.97;5052915;28;20036;-83
2022/11/27 01:46:20;;;;;;;;;;;;;;;6.44;100.00;102184.50;5038329;28;20060;-83
2022/11/27 01:48:47;;;;;;;33.50;12.60;;;;;;;6.43;100.00;102162.63;5086091;28;19928;-84
2022/11/27 01:51:14;;;;;;;28.37;11.93;;;;;;;6.47;100.00;102160.94;5052716;28;20048;-82
2022/11/27 01:53:41;;;;;;;26.00;11.77;;;;;;;6.47;100.00;102145.19;5066057;28;20029;-82
2022/11/27 01:56:08;;;;;;;31.03;13.80;;;;;;;6.47;100.00;102142.56;5054648;28;20070;-82
2022/11/27 01:58:35;;;;;;;34.20;14.53;;;;;;;6.48;100.00;102132.13;5054372;28;20051;-82
2022/11/27 02:01:03;;;;;;;29.00;12.43;;;;;;;6.47;100.00;102121.56;5071740;28;20493;-83
2022/11/27 02:03:30;;;;;;;37.67;14.73;;;;;;;6.47;100.00;102121.56;5055380;28;20028;-83
2022/11/27 02:05:57;;;;;;;30.10;14.67;;;;;;;6.49;100.00;102128.63;5040250;28;20218;-83
2022/11/27 02:08:24;;;;;;;30.43;11.70;;;;;;;6.45;100.00;102126.78;5040717;28;20047;-84
2022/11/27 02:11:02;;;;;;;33.73;14.50;;;;;;;6.46;100.00;102130.28;5075954;28;20037;-84
2022/11/27 02:13:38;;;;;;;33.17;13.70;;;;;;;6.44;100.00;102122.38;5038868;28;20040;-84
2022/11/27 02:16:27;;;;;;;27.17;12.27;;;;;;;6.41;100.00;102121.44;5039348;28;20173;-82
2022/11/27 02:19:25;;;;;;;31.33;12.57;;;;;;;6.42;100.00;102116.22;5096315;28;20075;-83
2022/11/27 02:21:59;;;;;;;34.77;12.93;;;;;;;6.41;100.00;102106.59;5041989;28;20515;-83
2022/11/27 02:24:32;;;;;;;39.25;15.48;;;;;;;6.41;100.00;102111.84;5037059;28;20094;-83
2022/11/27 02:27:24;;;;;;;37.80;14.47;;;;;;;6.41;100.00;102103.97;5033617;28;20037;-83
2022/11/27 02:29:54;;;;;;;35.00;14.80;;;;;;;6.43;100.00;102104.88;5067032;28;20090;-83
2022/11/27 02:32:31;;;;;;;32.23;13.80;;;;;;;6.40;100.00;102110.06;5055724;28;20093;-83
2022/11/27 02:35:07;;;;;;;34.47;15.97;;;;;;;6.41;100.00;102098.72;5063786;28;20047;-83
2022/11/27 02:37:39;;;;;;;39.13;14.97;;;;;;;6.41;100.00;102097.81;5056365;28;20069;-83
2022/11/27 02:40:25;;;;;;;40.60;15.43;;;;;;;6.58;100.00;102109.53;5053236;28;20352;-83
2022/11/27 02:43:13;;;;;;;35.13;15.00;;;;;;;6.57;100.00;102106.88;5055503;28;20048;-82
2022/11/27 02:45:43;;;;;;;42.97;15.90;;;;;;;6.46;100.00;102099.66;5089284;28;20040;-83
2022/11/27 02:48:12;;;;;;;39.00;16.73;;;;;;;6.49;100.00;102106.75;5055363;28;20048;-83
2022/11/27 02:50:39;;;;;;;39.03;16.97;;;;;;;6.55;100.00;102119.06;5054535;28;20040;-83
2022/11/27 02:53:14;;;;;;;40.27;16.47;;;;;;;6.45;100.00;102112.78;5052559;28;20389;-83
2022/11/27 02:55:40;;;;;;;;;;;;;;;6.45;100.00;102115.41;5058567;28;20066;-83
2022/11/27 02:58:09;;;;;;;35.00;15.30;;;;;;;6.42;100.00;102117.97;5067272;28;20394;-83
2022/11/27 03:00:37;;;;;;;42.70;16.97;;;;;;;6.44;100.00;102121.50;5071377;28;20493;-84
2022/11/27 03:03:06;;;;;;;37.97;15.40;;;;;;;6.41;100.00;102108.34;5087834;28;20040;-83
2022/11/27 03:05:35;;;;;;;33.13;14.47;;;;;;;6.40;100.00;102109.19;5088851;28;20520;-83
2022/11/27 03:08:22;;;;;;;43.93;18.03;;;;;;;6.45;100.00;102099.66;5053481;28;20783;-83
2022/11/27 03:10:56;;;;;;;45.07;17.27;;;;;;;6.46;100.00;102110.16;5067033;28;20127;-82
2022/11/27 03:13:23;;;;;;;;;;;;;;;6.44;100.00;102104.00;5087366;28;20037;-83
2022/11/27 03:16:10;;;;;;;36.03;15.43;;;;;;;6.36;100.00;102105.59;5092101;28;19963;-84
2022/11/27 03:18:55;;;;;;;39.17;17.57;;;;;;;6.40;100.00;102103.94;5049801;28;20039;-83
2022/11/27 03:21:29;;;;;;;38.63;15.98;;;;;;;6.39;100.00;102108.31;5052072;28;21503;-84
2022/11/27 03:23:56;;;;;;;35.30;15.63;;;;;;;6.37;100.00;102102.13;5067673;28;20028;-83
2022/11/27 03:26:24;;;;;;;33.47;16.23;;;;;;;6.43;100.00;102094.38;5047210;28;20039;-83
2022/11/27 03:28:52;;;;;;;44.33;17.93;;;;;;;6.52;100.00;102100.66;5037333;28;20040;-83
2022/11/27 03:31:20;;;;;;;36.27;16.53;;;;;;;6.47;100.00;102116.31;5069943;28;20089;-84
2022/11/27 03:33:47;;;;;;;32.00;16.37;;;;;;;6.42;100.00;102116.22;5070423;28;20028;-84
2022/11/27 03:36:16;;;;;;;32.70;15.77;;;;;;;6.47;100.00;102119.84;5056986;28;20050;-84
2022/11/27 03:38:44;;;;;;;31.40;14.63;;;;;;;6.39;100.00;102112.63;5061773;28;20098;-84
2022/11/27 03:41:23;;;;;;;34.33;16.00;;;;;;;6.41;100.00;102117.09;5050810;28;20421;-84
2022/11/27 03:44:25;;;;;;;34.83;15.50;;;;;;;6.37;100.00;102117.88;5054545;28;20044;-84
2022/11/27 03:46:55;;;;;;;35.20;14.57;;;;;;;6.34;100.00;102115.19;5079384;28;20047;-84
2022/11/27 03:50:04;;;;;;;38.27;15.93;;;;;;;6.29;100.00;102114.19;5052575;28;20044;-85
2022/11/27 03:53:12;;;;;;;37.93;13.83;;;;;;;6.27;100.00;102108.03;5069783;28;20173;-84
2022/11/27 03:55:45;;;;;;;27.33;13.70;;;;;;;6.25;100.00;102114.13;4977688;28;20046;-86
2022/11/27 03:58:21;;;;;;;30.23;14.23;;;;;;;6.23;100.00;102113.22;4955874;28;20077;-85
2022/11/27 04:00:49;;;;;;;28.33;13.37;;;;;;;6.20;100.00;102111.38;5010203;28;20059;-85
2022/11/27 04:03:22;;;;;;;29.60;14.13;;;;;;;6.20;100.00;102101.78;5031051;28;20044;-84
2022/11/27 04:05:49;;;;;;;32.38;14.98;;;;;;;6.24;100.00;102104.47;5052299;28;20043;-83
2022/11/27 04:08:15;;;;;;;28.13;12.93;;;;;;;6.18;100.00;102098.25;5050057;28;20036;-84
2022/11/27 04:10:42;;;;;;;26.83;13.43;;;;;;;6.18;100.00;102094.75;5053913;28;20536;-84
2022/11/27 04:13:09;;;;;;;27.40;12.83;;;;;;;6.19;100.00;102097.38;5053175;28;20047;-84
2022/11/27 04:15:35;;;;;;;25.57;12.60;;;;;;;6.14;100.00;102101.69;5039867;28;20131;-85
2022/11/27 04:18:02;;;;;;;26.03;13.53;;;;;;;6.13;100.00;102102.50;5053047;28;20580;-84
2022/11/27 04:20:29;;;;;;;25.97;12.53;;;;;;;6.13;100.00;102101.63;5053126;28;20044;-84
2022/11/27 04:22:56;;;;;;;26.83;12.87;;;;;;;6.29;100.00;102105.44;5067123;28;20036;-83
2022/11/27 04:25:23;;;;;;;25.90;12.30;;;;;;;6.18;100.00;102102.59;5076209;28;20117;-83
2022/11/27 04:27:50;;;;;;;32.53;14.27;;;;;;;6.23;100.00;102100.09;5039060;28;20050;-83
2022/11/27 04:30:17;;;;;;;28.47;12.80;;;;;;;6.13;100.00;102102.50;5072682;28;20504;-83
2022/11/27 04:32:44;;;;;;;20.67;11.60;;;;;;;6.10;100.00;102101.56;5061187;28;20407;-83
2022/11/27 04:35:10;;;;;;;23.83;12.53;;;;;;;6.15;100.00;102092.94;5054772;28;20043;-83
2022/11/27 04:37:37;;;;;;;21.73;10.67;;;;;;;6.10;100.00;102099.81;5035090;28;20044;-83
2022/11/27 04:40:05;;;;;;;22.00;11.17;;;;;;;6.09;100.00;102095.44;5053566;28;20059;-83
2022/11/27 04:42:31;;;;;;;21.10;12.57;;;;;;;6.07;100.00;102093.63;5070043;28;20451;-83
2022/11/27 04:44:58;;;;;;;22.87;10.63;;;;;;;6.10;100.00;102093.69;5034693;28;20044;-83
2022/11/27 04:47:25;;;;;;;26.23;13.13;;;;;;;6.13;100.00;102099.88;5068622;28;20413;-82
2022/11/27 04:49:52;;;;;;;27.17;11.27;;;;;;;6.10;100.00;102096.31;5047265;28;20048;-84
2022/11/27 04:52:18;;;;;;;20.30;11.03;;;;;;;6.03;100.00;102103.16;5055206;28;20063;-83
2022/11/27 04:54:45;;;;;;;24.13;11.97;;;;;;;6.03;100.00;102103.16;5036855;28;20447;-83
2022/11/27 04:57:11;;;;;;;28.77;11.20;;;;;;;5.97;100.00;102097.81;5054592;28;20737;-84
2022/11/27 04:59:38;;;;;;;21.63;10.40;;;;;;;5.96;100.00;102097.75;5047283;28;20884;-84
2022/11/27 05:02:05;;;;;;;21.40;9.27;;;;;;;5.93;100.00;102088.97;5034894;28;20509;-84
2022/11/27 05:04:32;;;;;;;18.80;10.10;;;;;;;5.92;100.00;102091.56;5037391;28;20450;-84
2022/11/27 05:06:58;;;;;;;18.03;9.27;;;;;;;5.87;100.00;102096.66;5064014;28;20048;-85
2022/11/27 05:09:25;;;;;;;24.43;11.57;;;;;;;5.96;100.00;102092.50;5032963;28;20429;-84
2022/11/27 05:11:52;;;;;;;22.53;10.93;;;;;;;5.90;100.00;102099.41;5056571;28;20047;-84
2022/11/27 05:14:20;;;;;;;21.23;10.80;;;;;;;5.84;100.00;102104.47;5082540;28;20044;-84
2022/11/27 05:16:49;;;;;;;19.23;10.83;;;;;;;5.83;100.00;102107.97;5069283;28;20036;-84
2022/11/27 05:19:17;;;;;;;21.63;11.23;;;;;;;5.81;100.00;102095.69;5071003;28;20089;-83
2022/11/27 05:21:44;;;;;;;23.03;12.30;;;;;;;5.80;100.00;102099.13;5053063;28;20043;-84
2022/11/27 05:24:12;;;;;;;24.20;12.53;;;;;;;5.83;100.00;102109.69;5083595;28;20144;-85
2022/11/27 05:26:39;;;;;;;28.33;11.23;;;;;;;5.87;100.00;102107.16;5038825;28;20107;-85
2022/11/27 05:29:07;;;;;;;24.00;11.47;;;;;;;5.91;100.00;102102.91;5053062;28;20047;-83
2022/11/27 05:31:33;;;;;;;25.77;12.60;;;;;;;5.90;100.00;102102.03;5066786;28;20044;-84
2022/11/27 05:34:01;;;;;;;22.47;11.07;;;;;;;5.83;100.00;102100.09;5055715;28;20085;-84
2022/11/27 05:36:28;;;;;;;20.43;11.07;;;;;;;5.88;100.00;102105.41;5071799;28;20052;-84
2022/11/27 05:38:55;;;;;;;22.60;11.07;;;;;;;5.84;100.00;102087.88;5038272;28;20301;-84
2022/11/27 05:41:22;;;;;;;32.03;13.87;;;;;;;5.89;100.00;102096.72;5076575;28;20044;-84
2022/11/27 05:43:49;;;;;;;28.63;12.30;;;;;;;5.89;100.00;102104.59;5055978;28;20097;-84
2022/11/27 05:46:17;;;;;;;33.07;14.27;;;;;;;6.02;100.00;102098.78;5055812;28;20104;-84
2022/11/27 05:48:44;;;;;;;28.70;13.83;;;;;;;5.89;100.00;102100.22;5057914;28;20047;-84
2022/11/27 05:51:11;;;;;;;29.87;13.67;;;;;;;5.89;100.00;102096.72;5072111;28;20040;-85
2022/11/27 05:53:38;;;;;;;24.07;11.93;;;;;;;5.84;100.00;102091.38;5065232;28;20073;-85
2022/11/27 05:56:11;;;;;;;31.43;13.43;;;;;;;5.83;100.00;102097.47;5032849;28;20036;-84
2022/11/27 05:58:38;;;;;;;26.60;13.00;;;;;;;5.83;100.00;102089.59;5056364;28;20040;-84
2022/11/27 06:01:05;;;;;;;29.93;13.67;;;;;;;5.85;100.00;102081.75;5052980;28;20398;-83
2022/11/27 06:03:32;;;;;;;28.17;13.03;;;;;;;5.89;100.00;102079.25;5076302;28;20035;-84
2022/11/27 06:06:05;;;;;;;30.07;15.27;;;;;;;5.82;100.00;102076.47;5054865;28;20074;-83
2022/11/27 06:08:32;;;;;;;33.30;16.20;;;;;;;5.82;100.00;102061.59;5040097;28;20649;-84
2022/11/27 06:10:58;;;;;;;35.23;15.50;;;;;;;5.77;100.00;102064.97;5073865;28;20537;-84
2022/11/27 06:13:25;;;;;;;24.83;13.23;;;;;;;5.77;100.00;102064.97;5049562;28;20052;-83
2022/11/27 06:15:52;;;;;;;36.53;18.77;;;;;;;5.74;100.00;102065.81;5037125;28;20033;-83
2022/11/27 06:18:18;;;;;;;30.37;16.27;;;;;;;5.74;100.00;102060.56;5053498;28;20041;-83
2022/11/27 06:20:45;;;;;;;28.73;16.10;;;;;;;5.72;100.00;102064.88;5058307;28;20044;-83
2022/11/27 06:23:18;;;;;;;28.70;16.97;;;;;;;5.71;100.00;102054.34;5065207;28;20037;-84
2022/11/27 06:25:45;;;;;;;26.73;14.87;;;;;;;5.71;100.00;102054.34;5058188;28;20036;-84
2022/11/27 06:28:12;;;;;;;33.00;16.17;;;;;;;5.82;100.00;102058.09;5046644;28;20039;-83
2022/11/27 06:30:38;;;;;;;36.27;17.33;;;;;;;5.85;100.00;102050.28;5046710;28;20040;-83
2022/11/27 06:33:05;;;;;;;28.27;13.73;;;;;;;5.81;100.00;102045.84;5054138;28;20040;-84
2022/11/27 06:35:31;;;;;;;34.43;17.23;;;;;;;5.83;100.00;102055.50;5056623;28;20040;-83
2022/11/27 06:37:58;;;;;;;30.23;14.53;;;;;;;5.88;100.00;102063.44;5057821;28;20466;-83
2022/11/27 06:40:25;;;;;;;35.00;16.90;;;;;;;5.99;100.00;102062.00;5060190;28;20531;-83
2022/11/27 06:42:51;;;;;;;35.03;15.77;;;;;;;5.92;100.00;102068.84;5058674;28;20085;-83
2022/11/27 06:45:18;;;;;;;32.00;16.63;;;;;;;5.95;100.00;102067.13;5060115;28;20028;-84
2022/11/27 06:47:45;;;;;;;37.60;17.23;;;;;;;6.05;100.00;102061.22;5052824;28;20475;-86
2022/11/27 06:50:12;;;;;;;35.33;17.07;;;;;;;6.01;100.00;102062.03;5048522;28;20048;-84
2022/11/27 06:52:38;;;;;;;29.73;15.43;;;;;;;6.01;100.00;102064.66;5055116;28;20509;-83
2022/11/27 06:55:06;;;;;;;35.80;15.83;;;;;;;5.95;100.00;102064.50;5054523;28;20074;-83
2022/11/27 06:57:33;;;;;;;34.50;17.30;;;;;;;5.95;100.00;102065.38;5060811;28;20512;-84
2022/11/27 07:00:00;;;;;;;33.43;17.07;;;;;;;5.92;100.00;102067.97;5068513;28;20040;-85
2022/11/27 07:02:27;;;;;;;31.30;15.63;;;;;;;5.92;100.00;102067.97;5056207;28;20089;-84
2022/11/27 07:04:54;;;;;;;49.00;26.57;;;;;;;5.93;100.00;102062.75;5034736;28;20036;-82
2022/11/27 07:07:20;;;;;;;38.83;18.00;;;;;;;5.97;100.00;102071.56;5062279;28;20044;-83
2022/11/27 07:09:47;;;;;;;35.67;17.80;;;;;;;5.93;100.00;102064.47;5071747;28;20036;-83
2022/11/27 07:12:14;;;;;;;32.10;15.87;;;;;;;5.92;100.00;102063.59;5054797;28;20109;-83
2022/11/27 07:14:41;;;;;;;31.60;16.73;;;;;;;5.89;100.00;102065.25;5078767;28;20374;-83
2022/11/27 07:17:08;;;;;;;29.33;15.10;;;;;;;5.88;100.00;102071.31;5071698;28;20505;-83
2022/11/27 07:19:34;;;;;;;30.40;15.17;;;;;;;5.90;100.00;102053.91;5061893;28;20040;-83
2022/11/27 07:22:01;;;;;;;37.20;18.27;;;;;;;5.98;100.00;102057.59;5073440;28;20040;-82
2022/11/27 07:24:28;;;;;;;31.60;17.23;;;;;;;5.93;100.00;102056.63;5048333;28;20644;-83
2022/11/27 07:26:55;;;;;;;35.90;17.03;;;;;;;6.02;100.00;102051.56;5072757;28;20439;-83
2022/11/27 07:29:22;;;;;;;30.47;16.83;;;;;;;6.01;100.00;102049.78;5073139;28;20033;-83
2022/11/27 07:31:50;;;;;;;33.87;16.30;;;;;;;5.97;100.00;102050.59;5072032;28;20039;-83
2022/11/27 07:34:17;;;;;;;32.50;18.67;;;;;;;6.05;100.00;102053.34;5074110;28;20043;-82
2022/11/27 07:36:47;;;;;;;33.30;16.40;;;;;;;6.01;100.00;102057.66;5057093;28;20461;-83
2022/11/27 07:39:16;;;;;;;30.23;15.97;;;;;;;6.04;100.00;102055.09;5056832;28;20047;-82
2022/11/27 07:41:54;;;;;;;30.03;16.77;;;;;;;6.04;100.00;102052.47;5079801;28;20044;-82
2022/11/27 07:44:25;;;;;;;27.37;16.13;;;;;;;6.03;100.00;102053.31;5071008;28;20036;-82
2022/11/27 07:46:52;;;;;;;31.23;16.97;;;;;;;6.12;100.00;102043.00;5050126;28;20036;-82
2022/11/27 07:49:22;;;;;;;29.40;17.30;;;;;;;6.01;100.00;102044.53;5075853;22;20063;31
2022/11/27 07:51:49;;;;;;;29.37;15.07;;;;;;;6.02;100.00;102041.06;5020612;28;20053;-79
2022/11/27 07:54:15;;;;;;;29.93;15.37;;;;;;;6.05;100.00;102040.22;5005388;28;20128;-79
2022/11/27 07:56:42;;;;;;;30.33;16.10;;;;;;;6.09;100.00;102023.72;5008686;28;20061;-79
2022/11/27 07:59:09;;;;;;;28.53;15.93;;;;;;;6.15;100.00;102021.22;5011825;28;20045;-80
2022/11/27 08:01:36;;;;;;;26.77;15.27;;;;;;;6.05;100.00;102034.97;5040439;28;20129;-80
2022/11/27 08:04:02;;;;;;;29.10;14.97;;;;;;;6.02;100.00;102029.69;5011461;28;20053;-79
2022/11/27 08:06:29;;;;;;;26.17;14.83;;;;;;;5.92;100.00;102026.00;4999072;28;20049;-83
2022/11/27 08:08:56;;;;;;;21.90;14.23;;;;;;;5.86;100.00;102031.06;5013659;28;20042;-83
2022/11/27 08:11:26;;;;;;;24.97;13.70;;;;;;;5.81;100.00;102030.13;4980836;28;20115;-83
2022/11/27 08:13:58;;;;;;;26.53;14.97;;;;;;;5.85;100.00;102026.69;5014232;28;20494;-83
2022/11/27 08:16:25;;;;;;;25.77;15.10;;;;;;;5.82;100.00;102029.25;4998254;28;20504;-83
2022/11/27 08:18:52;;;;;;;28.30;15.13;;;;;;;5.74;100.00;102026.47;5015344;28;20041;-83
2022/11/27 08:21:19;;;;;;;25.23;12.57;;;;;;;5.62;100.00;102021.81;4980590;28;20069;-83
2022/11/27 08:23:46;;;;;;;26.67;15.20;;;;;;;5.64;100.00;102027.13;5013011;28;20045;-83
2022/11/27 08:26:13;;;;;;;25.77;12.40;;;;;;;5.53;100.00;102019.00;4985622;28;20076;-84
2022/11/27 08:28:41;;;;;;;20.40;12.87;;;;;;;5.47;100.00;102016.28;5004452;28;20037;-84
2022/11/27 08:31:09;;;;;;;24.13;12.73;;;;;;;5.46;100.00;102019.72;4995867;28;20052;-85
2022/11/27 08:33:36;;;;;;;25.30;13.07;;;;;;;5.43;100.00;102016.16;4981267;28;20042;-85
2022/11/27 08:36:04;;;;;;;21.67;12.73;;;;;;;5.46;100.00;102022.34;4997199;28;20080;-84
2022/11/27 08:38:34;;;;;;;21.17;11.80;;;;;;;5.42;100.00;102027.50;4993648;28;20380;-84
2022/11/27 08:41:03;;;;;;;24.57;12.77;;;;;;;5.46;100.00;102027.59;5010209;28;20049;-84
2022/11/27 08:43:31;;;;;;;24.73;13.93;;;;;;;5.49;100.00;102027.66;5012806;28;20772;-85
2022/11/27 08:45:57;;;;;;;21.10;12.43;;;;;;;5.54;100.00;102019.88;4985890;28;20038;-85
2022/11/27 08:48:24;;;;;;;25.30;14.23;;;;;;;5.61;100.00;102025.31;4995869;28;20069;-84
2022/11/27 08:50:51;;;;;;;26.70;13.63;;;;;;;5.74;100.00;102025.59;5007549;28;20057;-84
2022/11/27 08:53:18;;;;;;;25.33;13.40;;;;;;;5.77;100.00;102029.16;4982896;28;20041;-84
2022/11/27 08:55:45;;;;;;;29.73;14.90;;;;;;;5.90;100.00;102030.31;5011660;28;20040;-84
2022/11/27 08:58:12;;;;;;;27.20;14.43;;;;;;;6.05;100.00;102029.72;4986099;28;20112;-84
2022/11/27 09:00:39;;;;;;;26.00;14.07;;;;;;;5.95;100.00;102022.53;4988479;28;20065;-82
2022/11/27 09:03:09;;;;;;;25.90;14.43;;;;;;;5.98;100.00;102027.88;5016798;28;20268;-84
2022/11/27 09:05:35;;;;;;;28.83;14.10;;;;;;;5.97;100.00;102027.00;4987026;28;20064;-83
2022/11/27 09:08:04;;;;;;;26.93;14.87;;;;;;;6.19;100.00;102021.28;4987198;28;20049;-84
2022/11/27 09:10:31;;;;;;;26.37;13.90;;;;;;;6.17;100.00;102030.00;4990689;28;20490;-84
2022/11/27 09:12:58;;;;;;;20.03;12.37;;;;;;;6.14;100.00;102022.97;5002972;28;20064;-83
2022/11/27 09:15:25;;;;;;;29.20;13.10;;;;;;;6.26;100.00;102022.28;5013028;28;20088;-82
2022/11/27 09:17:52;;;;;;;25.03;14.00;;;;;;;6.36;100.00;102020.72;4983473;28;20068;-83
2022/11/27 09:20:19;;;;;;;26.43;14.27;;;;;;;6.39;100.00;102031.25;5016786;28;20128;-84
2022/11/27 09:22:45;;;;;;;27.30;14.63;;;;;;;6.34;100.00;102027.69;4983014;28;20109;-81
2022/11/27 09:25:12;;;;;;;28.97;14.87;;;;;;;6.41;100.00;102034.81;4984357;28;20043;-82
2022/11/27 09:27:39;;;;;;;28.30;14.13;;;;;;;6.47;100.00;102029.66;5080756;23;20042;-80
2022/11/27 09:30:06;;;;;;;29.27;14.07;;;;;;;6.49;100.00;102025.34;4998745;28;20094;-81
2022/11/27 09:32:33;;;;;;;26.53;13.67;;;;;;;6.55;100.00;102008.81;4994339;28;20071;-82
2022/11/27 09:35:00;;;;;;;26.93;13.57;;;;;;;6.62;100.00;102011.56;4997185;28;20030;-83
2022/11/27 09:37:27;;;;;;;29.90;12.70;;;;;;;6.61;100.00;102011.53;4995658;28;20124;-81
2022/11/27 09:39:54;;;;;;;23.67;12.97;;;;;;;6.59;100.00;102013.25;4989820;28;20038;-81
2022/11/27 09:42:58;;;;;;;27.33;13.70;;;;;;;6.61;100.00;102015.06;4991938;28;20089;-81
2022/11/27 09:45:26;;;;;;;21.50;12.30;;;;;;;6.63;100.00;102018.59;5008001;28;20050;-82
2022/11/27 09:47:56;;;;;;;26.07;13.40;;;;;;;6.69;100.00;102017.81;5009981;28;20045;-80
2022/11/27 09:50:40;;;;;;;22.90;12.40;;;;;;;6.73;100.00;102017.91;5003072;28;20042;-81
2022/11/27 09:53:25;;;;;;;19.77;12.13;;;;;;;6.79;100.00;102009.22;5013007;28;20837;-81
2022/11/27 09:55:53;;;;;;;23.60;12.47;;;;;;;6.74;100.00;102006.53;4995831;28;20415;-81
2022/11/27 09:58:38;;;;;;;24.93;12.27;;;;;;;6.72;100.00;101996.84;4995840;28;20064;-82
2022/11/27 10:01:14;;;;;;;26.30;12.77;;;;;;;6.66;100.00;101997.66;4975430;28;20506;-81
2022/11/27 10:03:41;;;;;;;28.27;13.67;;;;;;;6.70;100.00;101996.81;4984022;28;20057;-79
2022/11/27 10:06:25;;;;;;;21.97;13.53;;;;;;;6.58;100.00;102003.63;4990403;28;20093;-81
2022/11/27 10:08:59;;;;;;;19.80;11.20;;;;;;;6.44;100.00;101985.00;5001119;28;20125;-81
2022/11/27 10:11:30;;;;;;;22.55;12.45;;;;;;;6.58;100.00;101990.50;4991435;28;20045;-82
2022/11/27 10:14:23;;;;;;;21.73;12.40;;;;;;;6.68;100.00;101990.66;4993587;28;20514;-82
2022/11/27 10:17:11;;;;;;;21.53;11.53;;;;;;;6.60;100.00;101983.53;5004726;28;20403;-82
2022/11/27 10:19:46;;;;;;;21.57;11.37;;;;;;;6.57;100.00;101983.47;4997468;28;20041;-80
2022/11/27 10:22:43;;;;;;;22.90;12.67;;;;;;;6.52;100.00;101985.13;4989822;28;20038;-82
2022/11/27 10:25:20;;;;;;;18.80;12.27;;;;;;;6.64;100.00;101983.63;4996441;28;20048;-81
2022/11/27 10:28:00;;;;;;;20.83;11.67;;;;;;;6.70;100.00;101986.31;5002808;28;20526;-83
2022/11/27 10:30:28;;;;;;;18.53;10.60;;;;;;;6.80;100.00;101976.84;5029943;28;20052;-83
2022/11/27 10:32:57;;;;;;;22.00;11.87;;;;;;;6.83;100.00;101976.91;5013805;28;20041;-85
2022/11/27 10:35:27;;;;;;;24.30;12.80;;;;;;;7.02;100.00;101970.19;4991878;28;20030;-81
2022/11/27 10:38:05;;;;;;;18.90;11.20;;;;;;;7.17;100.00;101974.78;5001112;28;20087;-84
2022/11/27 10:40:37;;;;;;;18.13;11.20;;;;;;;7.32;100.00;101965.38;4984840;28;20562;-84
2022/11/27 10:43:16;;;;;;;22.00;9.13;;;;;;;7.41;100.00;101966.38;5013753;28;20457;-82
2022/11/27 10:45:48;;;;;;;17.70;8.97;;;;;;;7.56;100.00;101956.91;5000408;28;20030;-82
2022/11/27 10:48:14;;;;;;;16.00;9.87;;;;;;;7.62;100.00;101959.63;4981493;28;20049;-81
2022/11/27 10:50:42;;;;;;;17.63;10.27;;;;;;;7.82;100.00;101957.25;5011088;28;20033;-81
2022/11/27 10:53:34;;;;;;;17.83;9.43;;;;;;;7.93;100.00;101953.84;4998654;28;20449;-81
2022/11/27 10:56:03;;;;;;;19.13;8.67;;;;;;;7.96;100.00;101959.13;4999875;28;20048;-81
2022/11/27 10:58:40;;;;;;;17.90;9.40;;;;;;;8.08;100.00;101951.38;5014828;28;20052;-81
2022/11/27 11:01:10;;;;;;;13.70;8.38;;;;;;;8.10;100.00;101957.53;4998969;28;20083;-80
2022/11/27 11:03:37;;;;;;;14.93;10.57;;;;;;;8.18;100.00;101953.25;5012305;28;20037;-82
2022/11/27 11:06:06;;;;;;;18.67;11.15;;;;;;;8.29;100.00;101943.69;4995036;28;20750;-81
2022/11/27 11:09:04;;;;;;;30.90;24.10;;;;;;;8.41;100.00;101942.97;5001172;28;20438;-81
2022/11/27 11:11:30;;;;;;;22.05;14.18;;;;;;;8.39;100.00;101944.69;4998616;28;20049;-82
2022/11/27 11:13:57;;;;;;;20.77;14.98;;;;;;;8.43;100.00;101931.56;5002428;28;20526;-83
2022/11/27 11:16:29;;;;;;;14.43;8.23;;;;;;;8.51;100.00;101922.84;5000060;28;20076;-83
2022/11/27 11:19:01;;;;;;;13.63;7.93;;;;;;;8.50;100.00;101919.34;4999292;28;20046;-82
2022/11/27 11:21:34;;;;;;;12.32;7.25;;;;;;;8.43;100.00;101918.41;5015071;28;20037;-83
2022/11/27 11:24:06;;;;;;;11.85;8.07;;;;;;;8.47;100.00;101927.19;4999472;28;20096;-82